sensor_id;sensor_type;location;lat;lon;timestamp;pressure;altitude;pressure_sealevel;temperature;humidity
57094;BME280;42970;50.996;3.706;2023-01-08T00:01:43;75960.84;;;-146.65;99.10
57094;BME280;42970;50.996;3.706;2023-01-08T00:04:09;75948.75;;;-146.65;98.48
57094;BME280;42970;50.996;3.706;2023-01-08T00:06:34;75950.75;;;-146.65;97.28
57094;BME280;42970;50.996;3.706;2023-01-08T00:09:00;75942.69;;;-146.65;96.75
57094;BME280;42970;50.996;3.706;2023-01-08T00:11:26;75952.78;;;-146.65;96.05
57094;BME280;42970;50.996;3.706;2023-01-08T00:13:51;75946.72;;;-146.65;95.07
57094;BME280;42970;50.996;3.706;2023-01-08T00:16:17;75952.78;;;-146.65;94.85
57094;BME280;42970;50.996;3.706;2023-01-08T00:18:43;75956.81;;;-146.65;94.84
57094;BME280;42970;50.996;3.706;2023-01-08T00:21:08;75952.78;;;-146.65;93.51
57094;BME280;42970;50.996;3.706;2023-01-08T00:23:34;75954.78;;;-146.65;92.82
57094;BME280;42970;50.996;3.706;2023-01-08T00:26:00;75964.88;;;-146.65;92.29
57094;BME280;42970;50.996;3.706;2023-01-08T00:28:26;75958.81;;;-146.65;92.17
57094;BME280;42970;50.996;3.706;2023-01-08T00:30:51;75964.88;;;-146.65;90.92
57094;BME280;42970;50.996;3.706;2023-01-08T00:33:17;75966.91;;;-146.65;90.98
57094;BME280;42970;50.996;3.706;2023-01-08T00:35:42;75968.91;;;-146.65;89.59
57094;BME280;42970;50.996;3.706;2023-01-08T00:38:08;75970.94;;;-146.65;89.36
57094;BME280;42970;50.996;3.706;2023-01-08T00:40:33;75979.00;;;-146.65;88.43
57094;BME280;42970;50.996;3.706;2023-01-08T00:42:59;75997.16;;;-146.65;88.60
57094;BME280;42970;50.996;3.706;2023-01-08T00:45:25;76003.22;;;-146.65;88.83
57094;BME280;42970;50.996;3.706;2023-01-08T00:47:50;76011.28;;;-146.65;89.40
57094;BME280;42970;50.996;3.706;2023-01-08T00:50:15;76019.34;;;-146.65;90.32
57094;BME280;42970;50.996;3.706;2023-01-08T00:52:40;76035.47;;;-146.65;91.48
57094;BME280;42970;50.996;3.706;2023-01-08T00:55:06;76041.53;;;-146.65;92.83
57094;BME280;42970;50.996;3.706;2023-01-08T00:57:35;76055.66;;;-146.65;92.85
57094;BME280;42970;50.996;3.706;2023-01-08T01:00:00;76073.81;;;-146.65;93.82
57094;BME280;42970;50.996;3.706;2023-01-08T01:02:25;76081.88;;;-146.65;92.78
57094;BME280;42970;50.996;3.706;2023-01-08T01:04:52;76077.84;;;-146.65;92.81
57094;BME280;42970;50.996;3.706;2023-01-08T01:07:17;76073.81;;;-146.65;92.47
57094;BME280;42970;50.996;3.706;2023-01-08T01:09:42;76079.88;;;-146.65;92.44
57094;BME280;42970;50.996;3.706;2023-01-08T01:12:08;76089.94;;;-146.65;93.26
57094;BME280;42970;50.996;3.706;2023-01-08T01:14:33;76091.97;;;-146.65;92.69
57094;BME280;42970;50.996;3.706;2023-01-08T01:16:59;76089.94;;;-146.65;93.37
57094;BME280;42970;50.996;3.706;2023-01-08T01:19:25;76110.13;;;-146.65;93.85
57094;BME280;42970;50.996;3.706;2023-01-08T01:21:50;76106.09;;;-146.65;93.79
57094;BME280;42970;50.996;3.706;2023-01-08T01:24:16;76118.19;;;-146.65;93.87
57094;BME280;42970;50.996;3.706;2023-01-08T01:26:41;76116.19;;;-146.65;94.21
57094;BME280;42970;50.996;3.706;2023-01-08T01:29:07;76110.13;;;-146.65;94.11
57094;BME280;42970;50.996;3.706;2023-01-08T01:31:33;76114.16;;;-146.65;94.20
57094;BME280;42970;50.996;3.706;2023-01-08T01:33:58;76112.13;;;-146.65;94.76
57094;BME280;42970;50.996;3.706;2023-01-08T01:36:24;76110.13;;;-146.65;95.47
57094;BME280;42970;50.996;3.706;2023-01-08T01:38:50;76108.09;;;-146.65;95.52
57094;BME280;42970;50.996;3.706;2023-01-08T01:43:51;76116.19;;;-146.65;96.99
57094;BME280;42970;50.996;3.706;2023-01-08T01:48:41;76110.13;;;-146.65;98.04
57094;BME280;42970;50.996;3.706;2023-01-08T01:51:07;76102.06;;;-146.65;98.22
57094;BME280;42970;50.996;3.706;2023-01-08T01:53:33;76102.06;;;-146.65;99.02
57094;BME280;42970;50.996;3.706;2023-01-08T01:55:59;76096.00;;;-146.65;99.24
57094;BME280;42970;50.996;3.706;2023-01-08T01:58:26;76102.06;;;-146.65;99.63
57094;BME280;42970;50.996;3.706;2023-01-08T02:00:52;76098.03;;;-146.65;100.00
57094;BME280;42970;50.996;3.706;2023-01-08T02:03:20;76093.97;;;-146.65;100.00
57094;BME280;42970;50.996;3.706;2023-01-08T02:05:51;76093.97;;;-146.65;100.00
57094;BME280;42970;50.996;3.706;2023-01-08T02:08:32;76089.94;;;-146.65;100.00
57094;BME280;42970;50.996;3.706;2023-01-08T02:13:30;76100.03;;;-146.65;100.00
57094;BME280;42970;50.996;3.706;2023-01-08T02:16:10;76098.03;;;-146.65;100.00
57094;BME280;42970;50.996;3.706;2023-01-08T02:18:43;76096.00;;;-146.65;100.00
57094;BME280;42970;50.996;3.706;2023-01-08T02:21:12;76098.03;;;-146.65;100.00
57094;BME280;42970;50.996;3.706;2023-01-08T02:23:41;76102.06;;;-146.65;100.00
57094;BME280;42970;50.996;3.706;2023-01-08T02:31:12;76093.97;;;-146.65;100.00
57094;BME280;42970;50.996;3.706;2023-01-08T02:33:38;76085.91;;;-146.65;100.00
57094;BME280;42970;50.996;3.706;2023-01-08T02:38:35;76081.88;;;-146.65;100.00
57094;BME280;42970;50.996;3.706;2023-01-08T02:41:06;76077.84;;;-146.65;100.00
57094;BME280;42970;50.996;3.706;2023-01-08T02:43:36;76081.88;;;-146.65;100.00
57094;BME280;42970;50.996;3.706;2023-01-08T02:46:04;76079.88;;;-146.65;100.00
57094;BME280;42970;50.996;3.706;2023-01-08T02:51:03;76081.88;;;-146.65;100.00
57094;BME280;42970;50.996;3.706;2023-01-08T02:53:34;76091.97;;;-146.65;100.00
57094;BME280;42970;50.996;3.706;2023-01-08T02:56:02;76096.00;;;-146.65;100.00
57094;BME280;42970;50.996;3.706;2023-01-08T02:58:29;76102.06;;;-146.65;100.00
57094;BME280;42970;50.996;3.706;2023-01-08T03:00:56;76093.97;;;-146.65;100.00
57094;BME280;42970;50.996;3.706;2023-01-08T03:03:25;76077.84;;;-146.65;100.00
57094;BME280;42970;50.996;3.706;2023-01-08T03:05:59;76087.94;;;-146.65;100.00
57094;BME280;42970;50.996;3.706;2023-01-08T03:08:25;76089.94;;;-146.65;100.00
57094;BME280;42970;50.996;3.706;2023-01-08T03:10:53;76096.00;;;-146.65;100.00
57094;BME280;42970;50.996;3.706;2023-01-08T03:13:22;76106.09;;;-146.65;100.00
57094;BME280;42970;50.996;3.706;2023-01-08T03:15:55;76120.22;;;-146.65;100.00
57094;BME280;42970;50.996;3.706;2023-01-08T03:18:29;76120.22;;;-146.65;100.00
57094;BME280;42970;50.996;3.706;2023-01-08T03:20:58;76114.16;;;-146.65;99.17
57094;BME280;42970;50.996;3.706;2023-01-08T03:23:24;76112.13;;;-146.65;98.14
57094;BME280;42970;50.996;3.706;2023-01-08T03:25:50;76124.25;;;-146.65;98.71
57094;BME280;42970;50.996;3.706;2023-01-08T03:28:19;76136.34;;;-146.65;98.81
57094;BME280;42970;50.996;3.706;2023-01-08T03:30:47;76140.38;;;-146.65;98.91
57094;BME280;42970;50.996;3.706;2023-01-08T03:33:13;76150.47;;;-146.65;99.03
57094;BME280;42970;50.996;3.706;2023-01-08T03:35:40;76144.41;;;-146.65;98.02
57094;BME280;42970;50.996;3.706;2023-01-08T03:38:10;76148.44;;;-146.65;97.69
57094;BME280;42970;50.996;3.706;2023-01-08T03:40:42;76160.56;;;-146.65;97.88
57094;BME280;42970;50.996;3.706;2023-01-08T03:43:08;76172.66;;;-146.65;97.82
57094;BME280;42970;50.996;3.706;2023-01-08T03:45:33;76184.75;;;-146.65;97.83
57094;BME280;42970;50.996;3.706;2023-01-08T03:48:01;76190.81;;;-146.65;98.09
57094;BME280;42970;50.996;3.706;2023-01-08T03:50:27;76206.97;;;-146.65;98.34
57094;BME280;42970;50.996;3.706;2023-01-08T03:52:54;76221.06;;;-146.65;98.91
57094;BME280;42970;50.996;3.706;2023-01-08T03:55:20;76219.06;;;-146.65;98.71
57094;BME280;42970;50.996;3.706;2023-01-08T03:57:45;76223.09;;;-146.65;98.64
57094;BME280;42970;50.996;3.706;2023-01-08T04:00:11;76221.06;;;-146.65;98.28
57094;BME280;42970;50.996;3.706;2023-01-08T04:02:36;76225.13;;;-146.65;97.45
57094;BME280;42970;50.996;3.706;2023-01-08T04:05:02;76235.19;;;-146.65;97.77
57094;BME280;42970;50.996;3.706;2023-01-08T04:07:27;76249.31;;;-146.65;98.36
57094;BME280;42970;50.996;3.706;2023-01-08T04:09:52;76243.28;;;-146.65;97.86
57094;BME280;42970;50.996;3.706;2023-01-08T04:12:17;76241.25;;;-146.65;97.87
57094;BME280;42970;50.996;3.706;2023-01-08T04:14:43;76241.25;;;-146.65;97.50
57094;BME280;42970;50.996;3.706;2023-01-08T04:17:11;76245.28;;;-146.65;97.97
57094;BME280;42970;50.996;3.706;2023-01-08T04:19:37;76253.34;;;-146.65;98.19
57094;BME280;42970;50.996;3.706;2023-01-08T04:22:02;76253.34;;;-146.65;97.74
57094;BME280;42970;50.996;3.706;2023-01-08T04:24:28;76257.38;;;-146.65;97.69
57094;BME280;42970;50.996;3.706;2023-01-08T04:26:53;76263.44;;;-146.65;98.05
57094;BME280;42970;50.996;3.706;2023-01-08T04:29:18;76267.47;;;-146.65;98.14
57094;BME280;42970;50.996;3.706;2023-01-08T04:31:43;76265.47;;;-146.65;98.05
57094;BME280;42970;50.996;3.706;2023-01-08T04:34:09;76273.53;;;-146.65;98.37
57094;BME280;42970;50.996;3.706;2023-01-08T04:36:34;76279.59;;;-146.65;98.44
57094;BME280;42970;50.996;3.706;2023-01-08T04:38:59;76293.69;;;-146.65;99.07
57094;BME280;42970;50.996;3.706;2023-01-08T04:41:25;76295.72;;;-146.65;99.18
57094;BME280;42970;50.996;3.706;2023-01-08T04:43:50;76267.47;;;-146.65;98.02
57094;BME280;42970;50.996;3.706;2023-01-08T04:46:15;76271.50;;;-146.65;97.95
57094;BME280;42970;50.996;3.706;2023-01-08T04:48:40;76273.53;;;-146.65;97.38
57094;BME280;42970;50.996;3.706;2023-01-08T04:51:06;76283.63;;;-146.65;97.79
57094;BME280;42970;50.996;3.706;2023-01-08T04:53:35;76281.59;;;-146.65;97.77
57094;BME280;42970;50.996;3.706;2023-01-08T04:56:04;76277.56;;;-146.65;97.69
57094;BME280;42970;50.996;3.706;2023-01-08T04:58:30;76293.69;;;-146.65;97.69
57094;BME280;42970;50.996;3.706;2023-01-08T05:00:55;76301.78;;;-146.65;98.35
57094;BME280;42970;50.996;3.706;2023-01-08T05:03:20;76299.75;;;-146.65;98.44
57094;BME280;42970;50.996;3.706;2023-01-08T05:05:45;76307.81;;;-146.65;98.99
57094;BME280;42970;50.996;3.706;2023-01-08T05:08:11;76311.84;;;-146.65;99.03
57094;BME280;42970;50.996;3.706;2023-01-08T05:10:37;76325.97;;;-146.65;99.34
57094;BME280;42970;50.996;3.706;2023-01-08T05:13:02;76328.00;;;-146.65;99.64
57094;BME280;42970;50.996;3.706;2023-01-08T05:15:27;76325.97;;;-146.65;99.43
57094;BME280;42970;50.996;3.706;2023-01-08T05:17:59;76315.91;;;-146.65;99.64
57094;BME280;42970;50.996;3.706;2023-01-08T05:20:25;76315.91;;;-146.65;99.51
57094;BME280;42970;50.996;3.706;2023-01-08T05:22:50;76311.84;;;-146.65;99.91
57094;BME280;42970;50.996;3.706;2023-01-08T05:25:16;76319.94;;;-146.65;100.00
57094;BME280;42970;50.996;3.706;2023-01-08T05:27:41;76299.75;;;-146.65;99.83
57094;BME280;42970;50.996;3.706;2023-01-08T05:30:06;76291.69;;;-146.65;99.68
57094;BME280;42970;50.996;3.706;2023-01-08T05:32:32;76299.75;;;-146.65;100.00
57094;BME280;42970;50.996;3.706;2023-01-08T05:34:57;76301.78;;;-146.65;100.00
57094;BME280;42970;50.996;3.706;2023-01-08T05:37:23;76305.81;;;-146.65;100.00
57094;BME280;42970;50.996;3.706;2023-01-08T05:39:48;76297.75;;;-146.65;100.00
57094;BME280;42970;50.996;3.706;2023-01-08T05:42:13;76307.81;;;-146.65;100.00
57094;BME280;42970;50.996;3.706;2023-01-08T05:44:39;76303.78;;;-146.65;100.00
57094;BME280;42970;50.996;3.706;2023-01-08T05:47:04;76291.69;;;-146.65;100.00
57094;BME280;42970;50.996;3.706;2023-01-08T05:49:29;76301.78;;;-146.65;100.00
57094;BME280;42970;50.996;3.706;2023-01-08T05:51:55;76301.78;;;-146.65;100.00
57094;BME280;42970;50.996;3.706;2023-01-08T05:54:20;76295.72;;;-146.65;100.00
57094;BME280;42970;50.996;3.706;2023-01-08T05:56:46;76299.75;;;-146.65;100.00
57094;BME280;42970;50.996;3.706;2023-01-08T05:59:11;76301.78;;;-146.65;100.00
57094;BME280;42970;50.996;3.706;2023-01-08T06:01:37;76301.78;;;-146.65;100.00
57094;BME280;42970;50.996;3.706;2023-01-08T06:04:03;76287.66;;;-146.65;100.00
57094;BME280;42970;50.996;3.706;2023-01-08T06:06:28;76275.53;;;-146.65;100.00
57094;BME280;42970;50.996;3.706;2023-01-08T06:08:54;76275.53;;;-146.65;100.00
57094;BME280;42970;50.996;3.706;2023-01-08T06:11:19;76271.50;;;-146.65;100.00
57094;BME280;42970;50.996;3.706;2023-01-08T06:13:44;76269.50;;;-146.65;100.00
57094;BME280;42970;50.996;3.706;2023-01-08T06:16:10;76265.47;;;-146.65;100.00
57094;BME280;42970;50.996;3.706;2023-01-08T06:18:35;76271.50;;;-146.65;100.00
57094;BME280;42970;50.996;3.706;2023-01-08T06:21:02;76275.53;;;-146.65;100.00
57094;BME280;42970;50.996;3.706;2023-01-08T06:23:29;76273.53;;;-146.65;100.00
57094;BME280;42970;50.996;3.706;2023-01-08T06:25:55;76275.53;;;-146.65;100.00
57094;BME280;42970;50.996;3.706;2023-01-08T06:28:20;76277.56;;;-146.65;100.00
57094;BME280;42970;50.996;3.706;2023-01-08T06:30:46;76279.59;;;-146.65;100.00
57094;BME280;42970;50.996;3.706;2023-01-08T06:33:11;76275.53;;;-146.65;100.00
57094;BME280;42970;50.996;3.706;2023-01-08T06:35:37;76285.63;;;-146.65;100.00
57094;BME280;42970;50.996;3.706;2023-01-08T06:38:02;76291.69;;;-146.65;100.00
57094;BME280;42970;50.996;3.706;2023-01-08T06:40:27;76287.66;;;-146.65;100.00
57094;BME280;42970;50.996;3.706;2023-01-08T06:42:53;76289.66;;;-146.65;100.00
57094;BME280;42970;50.996;3.706;2023-01-08T06:45:19;76289.66;;;-146.65;100.00
57094;BME280;42970;50.996;3.706;2023-01-08T06:47:44;76283.63;;;-146.65;100.00
57094;BME280;42970;50.996;3.706;2023-01-08T06:50:09;76289.66;;;-146.65;100.00
57094;BME280;42970;50.996;3.706;2023-01-08T06:52:35;76297.75;;;-146.65;100.00
57094;BME280;42970;50.996;3.706;2023-01-08T06:55:01;76311.84;;;-146.65;100.00
57094;BME280;42970;50.996;3.706;2023-01-08T06:57:26;76311.84;;;-146.65;100.00
57094;BME280;42970;50.996;3.706;2023-01-08T06:59:51;76307.81;;;-146.65;100.00
57094;BME280;42970;50.996;3.706;2023-01-08T07:02:17;76311.84;;;-146.65;100.00
57094;BME280;42970;50.996;3.706;2023-01-08T07:04:42;76319.94;;;-146.65;100.00
57094;BME280;42970;50.996;3.706;2023-01-08T07:07:09;76323.97;;;-146.65;100.00
57094;BME280;42970;50.996;3.706;2023-01-08T07:09:36;76323.97;;;-146.65;100.00
57094;BME280;42970;50.996;3.706;2023-01-08T07:12:04;76317.91;;;-146.65;100.00
57094;BME280;42970;50.996;3.706;2023-01-08T07:14:29;76321.94;;;-146.65;100.00
57094;BME280;42970;50.996;3.706;2023-01-08T07:16:55;76317.91;;;-146.65;100.00
57094;BME280;42970;50.996;3.706;2023-01-08T07:19:20;76321.94;;;-146.65;100.00
57094;BME280;42970;50.996;3.706;2023-01-08T07:21:45;76315.91;;;-146.65;100.00
57094;BME280;42970;50.996;3.706;2023-01-08T07:24:11;76313.88;;;-146.65;100.00
57094;BME280;42970;50.996;3.706;2023-01-08T07:26:36;76303.78;;;-146.65;100.00
57094;BME280;42970;50.996;3.706;2023-01-08T07:29:03;76307.81;;;-146.65;100.00
57094;BME280;42970;50.996;3.706;2023-01-08T07:31:29;76305.81;;;-146.65;100.00
57094;BME280;42970;50.996;3.706;2023-01-08T07:33:54;76295.72;;;-146.65;100.00
57094;BME280;42970;50.996;3.706;2023-01-08T07:36:20;76295.72;;;-146.65;100.00
57094;BME280;42970;50.996;3.706;2023-01-08T07:38:47;76303.78;;;-146.65;100.00
57094;BME280;42970;50.996;3.706;2023-01-08T07:41:13;76291.69;;;-146.65;100.00
57094;BME280;42970;50.996;3.706;2023-01-08T07:43:39;76283.63;;;-146.65;100.00
57094;BME280;42970;50.996;3.706;2023-01-08T07:46:04;76291.69;;;-146.65;100.00
57094;BME280;42970;50.996;3.706;2023-01-08T07:48:30;76283.63;;;-146.65;100.00
57094;BME280;42970;50.996;3.706;2023-01-08T07:51:02;76291.69;;;-146.65;100.00
57094;BME280;42970;50.996;3.706;2023-01-08T07:53:28;76293.69;;;-146.65;100.00
57094;BME280;42970;50.996;3.706;2023-01-08T07:56:03;76283.63;;;-146.65;100.00
57094;BME280;42970;50.996;3.706;2023-01-08T07:58:29;76283.63;;;-146.65;100.00
57094;BME280;42970;50.996;3.706;2023-01-08T08:00:55;76277.56;;;-146.65;100.00
57094;BME280;42970;50.996;3.706;2023-01-08T08:03:20;76271.50;;;-146.65;100.00
57094;BME280;42970;50.996;3.706;2023-01-08T08:05:46;76275.53;;;-146.65;100.00
57094;BME280;42970;50.996;3.706;2023-01-08T08:08:11;76273.53;;;-146.65;100.00
57094;BME280;42970;50.996;3.706;2023-01-08T08:10:37;76255.38;;;-146.65;100.00
57094;BME280;42970;50.996;3.706;2023-01-08T08:13:04;76263.44;;;-146.65;100.00
57094;BME280;42970;50.996;3.706;2023-01-08T08:15:29;76259.41;;;-146.65;100.00
57094;BME280;42970;50.996;3.706;2023-01-08T08:17:55;76255.38;;;-146.65;100.00
57094;BME280;42970;50.996;3.706;2023-01-08T08:20:20;76267.47;;;-146.65;100.00
57094;BME280;42970;50.996;3.706;2023-01-08T08:22:45;76257.38;;;-146.65;100.00
57094;BME280;42970;50.996;3.706;2023-01-08T08:25:11;76247.31;;;-146.65;100.00
57094;BME280;42970;50.996;3.706;2023-01-08T08:27:38;76239.22;;;-146.65;100.00
57094;BME280;42970;50.996;3.706;2023-01-08T08:30:04;76235.19;;;-146.65;100.00
57094;BME280;42970;50.996;3.706;2023-01-08T08:32:29;76235.19;;;-146.65;100.00
57094;BME280;42970;50.996;3.706;2023-01-08T08:34:55;76227.13;;;-146.65;100.00
57094;BME280;42970;50.996;3.706;2023-01-08T08:37:20;76211.00;;;-146.65;100.00
57094;BME280;42970;50.996;3.706;2023-01-08T08:39:45;76208.97;;;-146.65;100.00
57094;BME280;42970;50.996;3.706;2023-01-08T08:42:11;76198.88;;;-146.65;100.00
57094;BME280;42970;50.996;3.706;2023-01-08T08:44:36;76194.84;;;-146.65;100.00
57094;BME280;42970;50.996;3.706;2023-01-08T08:47:01;76182.75;;;-146.65;100.00
57094;BME280;42970;50.996;3.706;2023-01-08T08:49:30;76188.78;;;-146.65;100.00
57094;BME280;42970;50.996;3.706;2023-01-08T08:51:55;76176.69;;;-146.65;100.00
57094;BME280;42970;50.996;3.706;2023-01-08T08:54:20;76146.44;;;-146.65;100.00
57094;BME280;42970;50.996;3.706;2023-01-08T08:56:46;76124.25;;;-146.65;100.00
57094;BME280;42970;50.996;3.706;2023-01-08T08:59:12;76118.19;;;-146.65;100.00
57094;BME280;42970;50.996;3.706;2023-01-08T09:01:37;76106.09;;;-146.65;100.00
57094;BME280;42970;50.996;3.706;2023-01-08T09:04:03;76077.84;;;-146.65;99.10
57094;BME280;42970;50.996;3.706;2023-01-08T09:06:28;76057.66;;;-146.65;97.65
57094;BME280;42970;50.996;3.706;2023-01-08T09:08:53;76045.56;;;-146.65;96.63
57094;BME280;42970;50.996;3.706;2023-01-08T09:11:19;76013.28;;;-146.65;95.57
57094;BME280;42970;50.996;3.706;2023-01-08T09:13:44;75991.09;;;-146.65;94.35
57094;BME280;42970;50.996;3.706;2023-01-08T09:16:09;76003.22;;;-146.65;94.88
57094;BME280;42970;50.996;3.706;2023-01-08T09:18:35;76005.22;;;-146.65;94.76
57094;BME280;42970;50.996;3.706;2023-01-08T09:21:04;75997.16;;;-146.65;94.25
57094;BME280;42970;50.996;3.706;2023-01-08T09:23:29;75981.00;;;-146.65;93.87
57094;BME280;42970;50.996;3.706;2023-01-08T09:26:01;75974.97;;;-146.65;93.54
57094;BME280;42970;50.996;3.706;2023-01-08T09:28:26;75981.00;;;-146.65;93.07
57094;BME280;42970;50.996;3.706;2023-01-08T09:30:52;75962.84;;;-146.65;92.42
57094;BME280;42970;50.996;3.706;2023-01-08T09:33:17;75938.66;;;-146.65;91.51
57094;BME280;42970;50.996;3.706;2023-01-08T09:35:42;75932.59;;;-146.65;90.96
57094;BME280;42970;50.996;3.706;2023-01-08T09:38:08;75930.59;;;-146.65;90.69
57094;BME280;42970;50.996;3.706;2023-01-08T09:40:38;75926.56;;;-146.65;89.92
57094;BME280;42970;50.996;3.706;2023-01-08T09:43:04;75898.31;;;-146.65;88.97
57094;BME280;42970;50.996;3.706;2023-01-08T09:45:31;75896.28;;;-146.65;89.08
57094;BME280;42970;50.996;3.706;2023-01-08T09:47:59;75896.28;;;-146.65;88.53
57094;BME280;42970;50.996;3.706;2023-01-08T09:50:26;75878.13;;;-146.65;88.07
57094;BME280;42970;50.996;3.706;2023-01-08T09:52:52;75849.91;;;-146.65;86.78
57094;BME280;42970;50.996;3.706;2023-01-08T09:55:18;75872.09;;;-146.65;87.49
57094;BME280;42970;50.996;3.706;2023-01-08T09:57:44;75833.75;;;-146.65;86.28
57094;BME280;42970;50.996;3.706;2023-01-08T10:00:27;75833.75;;;-146.65;85.19
57094;BME280;42970;50.996;3.706;2023-01-08T10:02:52;75787.38;;;-146.65;85.06
57094;BME280;42970;50.996;3.706;2023-01-08T10:05:18;75787.38;;;-146.65;83.41
57094;BME280;42970;50.996;3.706;2023-01-08T10:07:44;75835.78;;;-146.65;84.21
57094;BME280;42970;50.996;3.706;2023-01-08T10:10:17;75791.41;;;-146.65;82.98
57094;BME280;42970;50.996;3.706;2023-01-08T10:12:43;75775.25;;;-146.65;82.79
57094;BME280;42970;50.996;3.706;2023-01-08T10:15:18;75757.09;;;-146.65;82.04
57094;BME280;42970;50.996;3.706;2023-01-08T10:17:49;75718.78;;;-146.65;81.20
57094;BME280;42970;50.996;3.706;2023-01-08T10:22:42;75714.75;;;-146.65;79.74
57094;BME280;42970;50.996;3.706;2023-01-08T10:25:12;75654.22;;;-146.65;78.09
57094;BME280;42970;50.996;3.706;2023-01-08T10:27:45;75621.97;;;-146.65;76.18
57094;BME280;42970;50.996;3.706;2023-01-08T10:30:14;75666.34;;;-146.65;76.63
57094;BME280;42970;50.996;3.706;2023-01-08T10:32:44;75638.09;;;-146.65;76.21
57094;BME280;42970;50.996;3.706;2023-01-08T10:35:15;75642.13;;;-146.65;76.07
57094;BME280;42970;50.996;3.706;2023-01-08T10:37:41;75595.72;;;-146.65;76.09
57094;BME280;42970;50.996;3.706;2023-01-08T10:42:33;75563.47;;;-146.65;73.92
57094;BME280;42970;50.996;3.706;2023-01-08T10:45:00;75577.59;;;-146.65;73.47
57094;BME280;42970;50.996;3.706;2023-01-08T10:47:28;75573.53;;;-146.65;74.07
57094;BME280;42970;50.996;3.706;2023-01-08T10:49:54;75486.81;;;-146.65;71.72
57094;BME280;42970;50.996;3.706;2023-01-08T10:52:39;75521.09;;;-146.65;70.21
57094;BME280;42970;50.996;3.706;2023-01-08T10:55:21;75466.66;;;-146.65;71.08
57094;BME280;42970;50.996;3.706;2023-01-08T10:57:53;75450.50;;;-146.65;68.43
57094;BME280;42970;50.996;3.706;2023-01-08T11:00:23;75363.78;;;-146.65;66.69
57094;BME280;42970;50.996;3.706;2023-01-08T11:02:49;75486.81;;;-146.65;68.59
57094;BME280;42970;50.996;3.706;2023-01-08T11:05:14;75482.78;;;-146.65;68.38
57094;BME280;42970;50.996;3.706;2023-01-08T11:07:40;75486.81;;;-146.65;68.21
57094;BME280;42970;50.996;3.706;2023-01-08T11:10:06;75438.41;;;-146.65;67.74
57094;BME280;42970;50.996;3.706;2023-01-08T11:12:44;75398.06;;;-146.65;66.79
57094;BME280;42970;50.996;3.706;2023-01-08T11:17:43;75432.34;;;-146.65;66.60
57094;BME280;42970;50.996;3.706;2023-01-08T11:20:18;75412.19;;;-146.65;66.94
57094;BME280;42970;50.996;3.706;2023-01-08T11:22:44;75464.63;;;-146.65;68.84
57094;BME280;42970;50.996;3.706;2023-01-08T11:25:11;75392.00;;;-146.65;66.71
57094;BME280;42970;50.996;3.706;2023-01-08T11:27:38;75383.94;;;-146.65;65.76
57094;BME280;42970;50.996;3.706;2023-01-08T11:30:09;75535.22;;;-146.65;70.28
57094;BME280;42970;50.996;3.706;2023-01-08T11:35:18;75379.91;;;-146.65;67.66
57094;BME280;42970;50.996;3.706;2023-01-08T11:37:51;75394.03;;;-146.65;66.90
57094;BME280;42970;50.996;3.706;2023-01-08T11:40:26;75623.97;;;-146.65;74.87
57094;BME280;42970;50.996;3.706;2023-01-08T11:43:57;75496.91;;;-146.65;73.48
57094;BME280;42970;50.996;3.706;2023-01-08T11:48:37;75432.34;;;-146.65;70.79
57094;BME280;42970;50.996;3.706;2023-01-08T11:58:54;75617.94;;;-146.65;75.99
57094;BME280;42970;50.996;3.706;2023-01-08T12:04:07;75452.53;;;-146.65;72.75
57094;BME280;42970;50.996;3.706;2023-01-08T12:12:01;75519.09;;;-146.65;72.38
57094;BME280;42970;50.996;3.706;2023-01-08T12:19:31;75547.31;;;-146.65;73.87
57094;BME280;42970;50.996;3.706;2023-01-08T12:27:07;75702.63;;;-146.65;80.18
57094;BME280;42970;50.996;3.706;2023-01-08T12:37:04;75559.44;;;-146.65;77.59
57094;BME280;42970;50.996;3.706;2023-01-08T12:39:32;75630.03;;;-146.65;78.47
57094;BME280;42970;50.996;3.706;2023-01-08T12:42:04;75617.94;;;-146.65;77.67
57094;BME280;42970;50.996;3.706;2023-01-08T12:44:32;75605.81;;;-146.65;79.05
57094;BME280;42970;50.996;3.706;2023-01-08T12:46:59;75650.19;;;-146.65;78.67
57094;BME280;42970;50.996;3.706;2023-01-08T12:49:47;75658.25;;;-146.65;80.53
57094;BME280;42970;50.996;3.706;2023-01-08T12:52:18;75678.44;;;-146.65;82.97
57094;BME280;42970;50.996;3.706;2023-01-08T12:54:47;75704.66;;;-146.65;83.06
57094;BME280;42970;50.996;3.706;2023-01-08T12:57:20;75668.34;;;-146.65;83.47
57094;BME280;42970;50.996;3.706;2023-01-08T13:04:52;75646.16;;;-146.65;80.75
57094;BME280;42970;50.996;3.706;2023-01-08T13:09:43;75642.13;;;-146.65;79.74
57094;BME280;42970;50.996;3.706;2023-01-08T13:12:08;75660.28;;;-146.65;79.90
57094;BME280;42970;50.996;3.706;2023-01-08T13:14:40;75664.31;;;-146.65;79.96
57094;BME280;42970;50.996;3.706;2023-01-08T13:17:13;75662.31;;;-146.65;80.57
57094;BME280;42970;50.996;3.706;2023-01-08T13:19:41;75664.31;;;-146.65;80.75
57094;BME280;42970;50.996;3.706;2023-01-08T13:22:23;75666.34;;;-146.65;80.52
57094;BME280;42970;50.996;3.706;2023-01-08T13:24:50;75658.25;;;-146.65;81.05
57094;BME280;42970;50.996;3.706;2023-01-08T13:29:44;75621.97;;;-146.65;81.09
57094;BME280;42970;50.996;3.706;2023-01-08T13:37:34;75640.09;;;-146.65;81.52
57094;BME280;42970;50.996;3.706;2023-01-08T13:39:59;75621.97;;;-146.65;80.90
57094;BME280;42970;50.996;3.706;2023-01-08T13:42:25;75599.78;;;-146.65;80.80
57094;BME280;42970;50.996;3.706;2023-01-08T13:44:59;75579.59;;;-146.65;80.30
57094;BME280;42970;50.996;3.706;2023-01-08T13:47:32;75579.59;;;-146.65;79.68
57094;BME280;42970;50.996;3.706;2023-01-08T13:49:58;75601.78;;;-146.65;80.29
57094;BME280;42970;50.996;3.706;2023-01-08T13:55:05;75613.88;;;-146.65;81.65
57094;BME280;42970;50.996;3.706;2023-01-08T13:57:38;75611.88;;;-146.65;82.06